AEE024 LGIR-LGAV
Flight info
| Callsign | AEE024 |
|---|---|
| Flight time | N/A |
| Altitude | 19000 |
| Route | EPALO UM749 MIL L617 SOREV |
| Aircraft | A320/M-SDE3FGHIRWY/LB1 |
Departure
| Time | 2026-05-06 17:25 |
|---|---|
| Airport | Heraklion International Nikos Kazantzakis Airport (LGIR) |
Arrival
| Time | N/A |
|---|---|
| Airport | Athens Eleftherios Venizelos International Airport (LGAV) |
| Time | Latitude | Longitude | Altitude | Speed | Heading |
|---|---|---|---|---|---|
| 2026-05-06 17:05 | 35.33869 | 25.17547 | 91 ft | 0 kts | 314° |
| 2026-05-06 17:12 | 35.33868 | 25.17549 | 91 ft | 2 kts | 314° |
| 2026-05-06 17:13 | 35.33850 | 25.17572 | 90 ft | 4 kts | 306° |
| 2026-05-06 17:13 | 35.33837 | 25.17601 | 90 ft | 4 kts | 294° |
| 2026-05-06 17:13 | 35.33827 | 25.17619 | 92 ft | 1 kts | 5° |
| 2026-05-06 17:13 | 35.33826 | 25.17619 | 92 ft | 0 kts | 5° |
| 2026-05-06 17:17 | 35.33831 | 25.17620 | 92 ft | 3 kts | 5° |
| 2026-05-06 17:17 | 35.33882 | 25.17629 | 91 ft | 9 kts | 24° |
| 2026-05-06 17:18 | 35.33897 | 25.17711 | 94 ft | 17 kts | 95° |
| 2026-05-06 17:18 | 35.33885 | 25.17886 | 94 ft | 22 kts | 95° |
| 2026-05-06 17:18 | 35.33871 | 25.18088 | 92 ft | 25 kts | 94° |
| 2026-05-06 17:18 | 35.33856 | 25.18306 | 92 ft | 27 kts | 95° |
| 2026-05-06 17:19 | 35.33840 | 25.18551 | 90 ft | 30 kts | 95° |
| 2026-05-06 17:19 | 35.33821 | 25.18806 | 90 ft | 20 kts | 94° |
| 2026-05-06 17:19 | 35.33843 | 25.18972 | 89 ft | 6 kts | 56° |
| 2026-05-06 17:19 | 35.33844 | 25.18974 | 89 ft | 0 kts | 56° |
| 2026-05-06 17:22 | 35.33845 | 25.18975 | 89 ft | 1 kts | 56° |
| 2026-05-06 17:22 | 35.33847 | 25.18980 | 89 ft | 0 kts | 56° |
| 2026-05-06 17:24 | 35.33877 | 25.19014 | 91 ft | 10 kts | 15° |
| 2026-05-06 17:24 | 35.33912 | 25.18940 | 88 ft | 12 kts | 276° |
| 2026-05-06 17:24 | 35.33925 | 25.18739 | 90 ft | 58 kts | 275° |
| 2026-05-06 17:24 | 35.33986 | 25.17845 | 95 ft | 146 kts | 275° |
| 2026-05-06 17:25 | 35.34082 | 25.16530 | 790 ft | 147 kts | 275° |
| 2026-05-06 17:25 | 35.34132 | 25.15483 | 1781 ft | 102 kts | 271° |